Time;durP1;ratioP1;P1;durP2;ratioP2;P2;SDS_P1;SDS_P2;PMS_P1;PMS_P2;Temp;Humidity;BMP_temperature;BMP_pressure;BME280_temperature;BME280_humidity;BME280_pressure;Samples;Min_cycle;Max_cycle;Signal;HPM_P1;HPM_P2
2022/01/11 00:01:41;;;;;;;13.58;6.70;;;;;;;-2.02;68.95;101970.53;1642819;86;27568;-64
2022/01/11 00:04:05;;;;;;;12.90;7.87;;;;;;;-2.03;69.01;101970.11;1657329;86;25483;-64
2022/01/11 00:06:38;;;;;;;19.73;7.97;;;;;;;-2.09;69.25;101978.09;1657908;86;25794;-64
2022/01/11 00:09:08;;;;;;;12.18;6.75;;;;;;;-2.10;69.62;101982.94;1657471;86;25844;-64
2022/01/11 00:11:35;;;;;;;14.28;6.67;;;;;;;-2.15;69.67;101971.61;1657499;86;25870;-64
2022/01/11 00:14:03;;;;;;;16.35;8.05;;;;;;;-2.19;70.01;101983.98;1657548;86;28364;-62
2022/01/11 00:16:29;;;;;;;18.00;9.15;;;;;;;-2.22;69.88;101990.60;1657901;86;25810;-64
2022/01/11 00:19:01;;;;;;;15.70;7.70;;;;;;;-2.25;69.81;101990.21;1656917;86;25799;-64
2022/01/11 00:21:25;;;;;;;18.15;9.65;;;;;;;-2.22;70.05;101991.49;1655575;85;25820;-64
2022/01/11 00:26:40;;;;;;;13.20;6.60;;;;;;;-2.19;69.88;101997.16;1654759;86;27505;-64
2022/01/11 00:29:06;;;;;;;14.15;7.28;;;;;;;-2.24;69.69;102000.33;1657042;86;25907;-65
2022/01/11 00:31:35;;;;;;;19.02;8.78;;;;;;;-2.29;69.82;102001.72;1655721;86;25842;-66
2022/01/11 00:34:03;;;;;;;15.38;8.08;;;;;;;-2.34;70.08;102007.48;1655416;86;25743;-65
2022/01/11 00:36:42;;;;;;;15.72;7.37;;;;;;;-2.29;70.20;102006.98;1655619;86;25889;-65
2022/01/11 00:39:03;;;;;;;14.35;8.75;;;;;;;-2.30;69.89;101997.33;1655822;85;28155;-62
2022/01/11 00:41:39;;;;;;;12.28;7.08;;;;;;;-2.36;69.98;102001.36;1655749;86;25815;-62
2022/01/11 00:44:09;;;;;;;13.90;7.92;;;;;;;-2.37;69.79;102004.88;1621950;88;25728;-64
2022/01/11 00:46:40;;;;;;;14.65;8.13;;;;;;;-2.36;70.01;102006.63;1645251;86;26425;-63
2022/01/11 00:49:07;;;;;;;14.28;8.10;;;;;;;-2.37;70.03;102012.79;1655577;86;26227;-64
2022/01/11 00:51:34;;;;;;;14.65;8.13;;;;;;;-2.33;69.87;102018.92;1657353;86;27451;-64
2022/01/11 00:54:01;;;;;;;16.50;7.75;;;;;;;-2.30;69.99;102017.10;1647461;86;25711;-64
2022/01/11 00:56:28;;;;;;;15.15;8.23;;;;;;;-2.29;69.93;102019.27;1624859;87;26415;-63
2022/01/11 00:58:54;;;;;;;13.15;7.42;;;;;;;-2.25;69.70;102017.03;1624884;87;25809;-65
2022/01/11 01:01:22;;;;;;;12.50;7.42;;;;;;;-2.26;69.64;102025.38;1625245;88;25816;-64
2022/01/11 01:03:49;;;;;;;13.70;6.83;;;;;;;-2.25;69.75;102031.07;1625176;88;27520;-65
2022/01/11 01:06:16;;;;;;;13.08;7.72;;;;;;;-2.24;69.60;102030.18;1625123;88;25874;-64
2022/01/11 01:08:45;;;;;;;16.00;7.78;;;;;;;-2.23;69.44;102037.20;1624963;88;25830;-64
2022/01/11 01:11:12;;;;;;;14.90;8.50;;;;;;;-2.24;69.25;102025.38;1638752;86;25816;-64
2022/01/11 01:13:45;;;;;;;12.73;7.00;;;;;;;-2.24;69.45;102022.73;1655574;85;25740;-64
2022/01/11 01:16:12;;;;;;;15.88;8.45;;;;;;;-2.23;69.45;102028.41;1655039;86;28150;-64
2022/01/11 01:18:50;;;;;;;10.35;7.05;;;;;;;-2.29;69.57;102029.39;1655421;86;26476;-64
2022/01/11 01:21:18;;;;;;;11.80;5.28;;;;;;;-2.31;69.50;102025.01;1655593;86;25851;-64
2022/01/11 01:23:46;;;;;;;8.05;4.75;;;;;;;-2.33;69.59;102023.73;1655441;86;26361;-64
2022/01/11 01:26:17;;;;;;;12.37;6.30;;;;;;;-2.37;69.72;102017.63;1655866;86;25522;-64
2022/01/11 01:28:52;;;;;;;13.90;6.97;;;;;;;-2.40;69.86;102031.30;1655674;86;28309;-63
2022/01/11 01:31:16;;;;;;;12.65;6.45;;;;;;;-2.43;69.92;102023.42;1655485;86;25557;-62
2022/01/11 01:33:46;;;;;;;9.23;5.85;;;;;;;-2.47;70.06;102030.51;1655451;86;25749;-64
2022/01/11 01:36:13;;;;;;;9.65;5.20;;;;;;;-2.50;70.15;102039.77;1654213;86;25812;-63
2022/01/11 01:38:43;;;;;;;14.28;6.72;;;;;;;-2.50;70.09;102046.81;1636790;87;25826;-63
2022/01/11 01:41:16;;;;;;;11.48;6.53;;;;;;;-2.54;70.29;102046.84;1636893;87;27892;-63
2022/01/11 01:43:45;;;;;;;14.45;7.62;;;;;;;-2.50;70.39;102055.58;1651400;86;25956;-63
2022/01/11 01:46:15;;;;;;;11.40;5.37;;;;;;;-2.46;70.42;102053.77;1653474;86;25685;-63
2022/01/11 01:48:45;;;;;;;10.18;6.00;;;;;;;-2.46;70.33;102052.45;1652991;86;25815;-63
2022/01/11 01:51:14;;;;;;;12.63;5.87;;;;;;;-2.47;69.83;102054.69;1653249;86;25804;-63
2022/01/11 01:53:45;;;;;;;9.70;5.55;;;;;;;-2.49;70.05;102053.83;1650463;86;27556;-63
2022/01/11 01:56:18;;;;;;;13.98;7.12;;;;;;;-2.47;70.23;102048.95;1654276;86;25756;-63
2022/01/11 01:58:46;;;;;;;15.80;7.13;;;;;;;-2.46;70.12;102050.70;1662521;86;25770;-63
2022/01/11 02:01:14;;;;;;;10.32;6.03;;;;;;;-2.46;70.04;102053.77;1636064;86;26424;-63
2022/01/11 02:03:43;;;;;;;7.87;5.20;;;;;;;-2.45;70.22;102056.83;1662928;86;25565;-63
2022/01/11 02:06:15;;;;;;;9.30;5.90;;;;;;;-2.46;69.99;102058.61;1662824;86;27481;-63
2022/01/11 02:08:47;;;;;;;9.48;5.67;;;;;;;-2.48;69.80;102053.80;1662923;85;25492;-63
2022/01/11 02:11:18;;;;;;;11.63;5.85;;;;;;;-2.50;69.83;102052.08;1663192;86;25878;-63
2022/01/11 02:13:47;;;;;;;9.85;4.97;;;;;;;-2.53;69.83;102068.81;1662855;85;25825;-63
2022/01/11 02:16:15;;;;;;;8.15;5.12;;;;;;;-2.60;70.05;102064.06;1663144;86;25771;-64
2022/01/11 02:18:45;;;;;;;8.08;5.12;;;;;;;-2.58;69.93;102061.39;1663073;85;28342;-63
2022/01/11 02:21:14;;;;;;;10.35;5.30;;;;;;;-2.59;69.81;102062.28;1662763;86;25702;-64
2022/01/11 02:23:41;;;;;;;9.73;5.78;;;;;;;-2.62;69.83;102058.39;1662791;86;25703;-63
2022/01/11 02:26:08;;;;;;;12.30;5.97;;;;;;;-2.65;70.14;102057.09;1662878;86;25810;-63
2022/01/11 02:28:37;;;;;;;10.45;6.03;;;;;;;-2.68;70.33;102064.14;1670376;85;26006;-63
2022/01/11 02:31:08;;;;;;;6.25;3.55;;;;;;;-2.69;70.32;102070.30;1662903;86;27483;-63
2022/01/11 02:33:51;;;;;;;6.97;4.15;;;;;;;-2.68;70.31;102064.14;1662989;85;26329;-64
2022/01/11 02:36:34;;;;;;;9.03;5.15;;;;;;;-2.69;70.17;102058.45;1662978;86;25751;-64
2022/01/11 02:39:11;;;;;;;9.93;5.95;;;;;;;-2.73;70.31;102058.50;1663648;85;25803;-63
2022/01/11 02:41:56;;;;;;;10.40;5.45;;;;;;;-2.75;70.60;102062.94;1661542;86;25935;-64
2022/01/11 02:44:25;;;;;;;8.78;5.10;;;;;;;-2.73;70.83;102063.34;1632958;87;28883;-63
2022/01/11 02:46:52;;;;;;;11.28;4.78;;;;;;;-2.73;70.67;102062.45;1632849;87;25763;-64
2022/01/11 02:49:20;;;;;;;8.78;4.78;;;;;;;-2.73;70.88;102061.13;1633178;87;25708;-64
2022/01/11 02:51:55;;;;;;;9.53;5.47;;;;;;;-2.71;70.72;102064.20;1632900;87;25786;-63
2022/01/11 02:54:23;;;;;;;9.55;5.50;;;;;;;-2.71;70.97;102072.53;1645212;86;25954;-64
2022/01/11 02:56:52;;;;;;;7.83;4.00;;;;;;;-2.73;70.57;102075.20;1628241;87;28361;-63
2022/01/11 02:59:19;;;;;;;9.98;5.60;;;;;;;-2.73;71.14;102061.13;1625675;88;25840;-64
2022/01/11 03:01:50;;;;;;;13.10;5.87;;;;;;;-2.74;71.24;102071.27;1639832;86;25553;-63
2022/01/11 03:04:17;;;;;;;10.98;5.95;;;;;;;-2.75;71.40;102072.16;1655208;86;26919;-64
2022/01/11 03:06:45;;;;;;;8.90;5.92;;;;;;;-2.74;71.33;102071.27;1655563;86;25548;-63
2022/01/11 03:09:13;;;;;;;9.45;5.75;;;;;;;-2.71;71.52;102080.44;1655797;86;28190;-64
2022/01/11 03:11:41;;;;;;;8.25;5.42;;;;;;;-2.74;71.34;102070.81;1655377;86;26512;-64
2022/01/11 03:14:08;;;;;;;10.82;5.55;;;;;;;-2.75;71.20;102070.84;1654956;86;26308;-64
2022/01/11 03:16:35;;;;;;;10.35;4.55;;;;;;;-2.71;71.58;102073.42;1655477;86;25929;-64
2022/01/11 03:19:03;;;;;;;18.37;6.90;;;;;;;-2.68;71.23;102075.14;1655758;86;25549;-63
2022/01/11 03:21:30;;;;;;;11.30;5.30;;;;;;;-2.71;71.20;102073.84;1655511;86;27505;-64
2022/01/11 03:23:58;;;;;;;10.65;5.20;;;;;;;-2.72;71.36;102087.91;1656925;86;25742;-64
2022/01/11 03:26:27;;;;;;;11.38;5.72;;;;;;;-2.72;71.62;102086.59;1657597;86;26460;-64
2022/01/11 03:28:57;;;;;;;18.12;6.35;;;;;;;-2.68;71.64;102093.12;1657844;86;25755;-64
2022/01/11 03:31:27;;;;;;;14.23;5.45;;;;;;;-2.63;71.61;102090.43;1657655;86;25817;-65
2022/01/11 03:33:52;;;;;;;9.78;5.40;;;;;;;-2.61;71.68;102094.39;1657497;86;28309;-62
2022/01/11 03:36:19;;;;;;;10.63;6.17;;;;;;;-2.57;71.65;102096.97;1657619;86;25730;-65
2022/01/11 03:38:48;;;;;;;9.95;5.58;;;;;;;-2.57;71.27;102091.70;1657795;86;25758;-63
2022/01/11 03:41:15;;;;;;;10.25;5.90;;;;;;;-2.55;71.43;102091.66;1657617;86;25885;-64
2022/01/11 03:43:43;;;;;;;11.33;5.50;;;;;;;-2.56;71.39;102103.98;1630397;86;25852;-63
2022/01/11 03:46:12;;;;;;;13.25;6.40;;;;;;;-2.57;71.33;102101.34;1627563;88;27485;-63
2022/01/11 03:48:39;;;;;;;12.95;5.37;;;;;;;-2.59;71.55;102098.73;1627287;88;25840;-64
2022/01/11 03:51:05;;;;;;;11.70;6.03;;;;;;;-2.58;71.52;102100.48;1627375;88;25818;-64
2022/01/11 03:53:49;;;;;;;13.75;6.58;;;;;;;-2.60;71.62;102109.30;1637036;86;26180;-63
2022/01/11 03:56:21;;;;;;;10.68;6.12;;;;;;;-2.58;71.65;102101.80;1622533;88;25870;-64
2022/01/11 03:58:36;;;;;;;16.67;6.47;;;;;;;-2.57;71.61;102107.93;1624444;87;28273;-64
2022/01/11 04:01:05;;;;;;;12.33;5.83;;;;;;;-2.55;71.78;102118.88;1625029;88;25975;-63
2022/01/11 04:03:32;;;;;;;15.38;6.10;;;;;;;-2.48;71.58;102112.23;1624915;88;25874;-64
2022/01/11 04:05:59;;;;;;;10.28;6.05;;;;;;;-2.50;71.51;102109.59;1624973;88;26172;-63
2022/01/11 04:08:27;;;;;;;10.55;6.10;;;;;;;-2.52;71.40;102120.16;1625051;88;25847;-64
2022/01/11 04:10:54;;;;;;;11.78;6.62;;;;;;;-2.56;71.81;102121.53;1624851;88;28411;-64
2022/01/11 04:13:26;;;;;;;15.40;5.83;;;;;;;-2.55;71.94;102124.14;1624904;88;25757;-64
2022/01/11 04:15:54;;;;;;;11.22;5.40;;;;;;;-2.54;71.91;102128.98;1625135;87;25745;-63
2022/01/11 04:18:22;;;;;;;7.95;4.78;;;;;;;-2.55;72.20;102124.60;1625127;88;25851;-64
2022/01/11 04:20:49;;;;;;;10.50;5.83;;;;;;;-2.56;72.15;102130.33;1625190;87;25668;-63
2022/01/11 04:23:18;;;;;;;9.70;5.42;;;;;;;-2.55;71.93;102132.51;1629427;86;27498;-63
2022/01/11 04:25:46;;;;;;;9.63;5.92;;;;;;;-2.53;72.11;102132.05;1636781;87;25788;-64
2022/01/11 04:28:15;;;;;;;9.58;5.00;;;;;;;-2.49;71.32;102131.11;1636542;87;25752;-64
2022/01/11 04:30:42;;;;;;;13.13;6.58;;;;;;;-2.54;71.31;102124.58;1636807;87;25763;-65
2022/01/11 04:33:10;;;;;;;14.10;5.87;;;;;;;-2.57;71.32;102135.17;1636805;87;26060;-64
2022/01/11 04:35:37;;;;;;;9.55;5.22;;;;;;;-2.58;71.56;102137.80;1636909;87;28260;-64
2022/01/11 04:38:04;;;;;;;8.93;5.42;;;;;;;-2.57;71.44;102135.59;1636537;87;25862;-65
2022/01/11 04:40:31;;;;;;;9.35;5.67;;;;;;;-2.56;71.55;102147.45;1636882;87;26221;-64
2022/01/11 04:42:58;;;;;;;7.87;4.60;;;;;;;-2.53;71.40;102148.72;1646096;86;25822;-64
2022/01/11 04:45:25;;;;;;;8.95;5.70;;;;;;;-2.53;71.47;102146.08;1653258;86;25656;-65
2022/01/11 04:47:56;;;;;;;10.10;5.10;;;;;;;-2.48;71.39;102157.03;1653001;86;27513;-64
2022/01/11 04:50:29;;;;;;;8.78;5.15;;;;;;;-2.47;70.46;102154.37;1651947;86;25825;-63
2022/01/11 04:52:59;;;;;;;16.87;8.25;;;;;;;-2.52;70.31;102150.92;1649100;86;25750;-64
2022/01/11 04:55:27;;;;;;;20.40;6.37;;;;;;;-2.58;70.68;102155.81;1651408;86;26499;-64
2022/01/11 04:57:54;;;;;;;6.10;3.87;;;;;;;-2.59;70.53;102174.26;1660809;86;25823;-64
2022/01/11 05:00:23;;;;;;;5.72;3.95;;;;;;;-2.59;70.67;102168.98;1662846;86;27473;-65
2022/01/11 05:02:56;;;;;;;6.92;3.98;;;;;;;-2.62;70.80;102165.95;1663057;86;25785;-63
2022/01/11 05:05:23;;;;;;;6.78;3.33;;;;;;;-2.59;70.73;102171.63;1663044;85;25707;-63
2022/01/11 05:07:53;;;;;;;8.20;4.85;;;;;;;-2.58;70.83;102157.56;1663179;86;26664;-62
2022/01/11 05:10:20;;;;;;;6.80;4.10;;;;;;;-2.58;70.64;102172.05;1662773;85;25900;-62
2022/01/11 05:12:48;;;;;;;6.20;3.65;;;;;;;-2.60;70.92;102179.98;1663284;86;28184;-63
2022/01/11 05:15:16;;;;;;;5.90;4.00;;;;;;;-2.58;70.75;102184.80;1662990;85;25855;-62
2022/01/11 05:17:44;;;;;;;7.30;3.50;;;;;;;-2.57;70.87;102190.92;1663423;86;26306;-62
2022/01/11 05:20:14;;;;;;;6.55;3.77;;;;;;;-2.56;70.61;102185.66;1655233;86;25796;-62
2022/01/11 05:22:42;;;;;;;6.42;4.03;;;;;;;-2.53;70.45;102191.34;1618507;88;25715;-62
2022/01/11 05:25:11;;;;;;;7.55;4.37;;;;;;;-2.52;70.09;102203.63;1618127;88;28609;-63
2022/01/11 05:27:38;;;;;;;5.47;3.12;;;;;;;-2.55;69.98;102192.65;1618472;88;25782;-62
2022/01/11 05:30:08;;;;;;;13.38;4.00;;;;;;;-2.49;69.40;102194.81;1639039;86;25809;-62
2022/01/11 05:32:36;;;;;;;9.83;3.72;;;;;;;-2.54;69.36;102196.17;1644480;86;26625;-62
2022/01/11 05:35:10;;;;;;;8.03;3.22;;;;;;;-2.54;69.72;102193.08;1644532;87;25755;-62
2022/01/11 05:37:37;;;;;;;8.15;3.98;;;;;;;-2.54;69.39;102197.03;1616801;88;26859;-62
2022/01/11 05:40:07;;;;;;;4.83;3.10;;;;;;;-2.57;69.66;102211.58;1633077;87;25832;-62
2022/01/11 05:42:34;;;;;;;4.70;3.05;;;;;;;-2.57;69.62;102207.62;1626397;87;25883;-62
2022/01/11 05:45:05;;;;;;;4.62;3.22;;;;;;;-2.58;69.86;102220.37;1633269;87;25790;-61
2022/01/11 05:47:34;;;;;;;5.12;3.55;;;;;;;-2.56;70.01;102217.28;1606836;87;25830;-62
2022/01/11 05:50:05;;;;;;;5.67;3.65;;;;;;;-2.55;70.27;102227.36;1633068;87;27515;-62
2022/01/11 05:52:33;;;;;;;20.72;4.85;;;;;;;-2.47;70.14;102224.66;1638107;87;25785;-62
2022/01/11 05:55:03;;;;;;;6.42;3.95;;;;;;;-2.44;69.72;102221.55;1607707;87;25910;-63
2022/01/11 05:57:30;;;;;;;7.92;4.50;;;;;;;-2.47;70.04;102228.61;1644225;86;25862;-62
2022/01/11 05:59:58;;;;;;;13.90;4.00;;;;;;;-2.42;70.34;102226.79;1622290;87;25751;-63
2022/01/11 06:02:25;;;;;;;7.55;3.98;;;;;;;-2.38;69.94;102228.05;1603261;89;27501;-62
2022/01/11 06:04:53;;;;;;;4.37;2.83;;;;;;;-2.41;69.42;102233.34;1626983;87;25989;-63
2022/01/11 06:07:24;;;;;;;6.17;4.22;;;;;;;-2.41;69.67;102235.98;1642278;87;25889;-63
2022/01/11 06:09:51;;;;;;;5.00;3.65;;;;;;;-2.41;69.41;102241.72;1614537;88;25847;-63
2022/01/11 06:12:18;;;;;;;7.50;4.28;;;;;;;-2.40;69.18;102243.47;1642370;87;25862;-63
2022/01/11 06:14:47;;;;;;;5.87;3.27;;;;;;;-2.47;69.39;102260.23;1614798;88;27645;-62
2022/01/11 06:17:14;;;;;;;12.85;4.75;;;;;;;-2.47;69.30;102256.28;1641726;86;25921;-62
2022/01/11 06:19:41;;;;;;;6.95;3.98;;;;;;;-2.50;69.21;102263.75;1616132;88;25785;-63
2022/01/11 06:22:10;;;;;;;7.10;3.27;;;;;;;-2.47;69.00;102263.73;1613241;88;25819;-63
2022/01/11 06:24:37;;;;;;;7.25;3.72;;;;;;;-2.50;69.02;102251.89;1613708;88;25779;-63
2022/01/11 06:27:04;;;;;;;5.47;3.45;;;;;;;-2.57;69.35;102273.50;1623472;86;27505;-63
2022/01/11 06:29:33;;;;;;;7.47;4.58;;;;;;;-2.58;69.44;102270.86;1607232;89;25791;-64
2022/01/11 06:32:05;;;;;;;8.85;4.60;;;;;;;-2.58;69.57;102269.55;1637049;87;25715;-63
2022/01/11 06:34:32;;;;;;;6.65;3.83;;;;;;;-2.56;69.39;102279.63;1620264;88;25838;-62
2022/01/11 06:37:01;;;;;;;11.00;4.03;;;;;;;-2.55;69.22;102278.75;1620182;88;25858;-62
2022/01/11 06:39:30;;;;;;;7.20;3.50;;;;;;;-2.55;69.35;102285.33;1620304;88;27632;-63
2022/01/11 06:41:57;;;;;;;7.97;3.92;;;;;;;-2.52;69.37;102283.54;1622935;87;25830;-62
2022/01/11 06:44:25;;;;;;;6.42;3.83;;;;;;;-2.53;69.26;102281.79;1636712;87;26501;-62
2022/01/11 06:46:52;;;;;;;7.25;3.70;;;;;;;-2.53;68.69;102301.55;1650654;86;25775;-62
2022/01/11 06:49:23;;;;;;;13.58;4.20;;;;;;;-2.57;68.40;102299.85;1637289;87;25755;-62
2022/01/11 06:51:53;;;;;;;8.00;4.80;;;;;;;-2.56;68.72;102311.25;1637224;87;27497;-63
2022/01/11 06:54:22;;;;;;;7.90;4.15;;;;;;;-2.58;68.74;102312.59;1639399;87;25965;-63
2022/01/11 06:56:51;;;;;;;8.13;3.80;;;;;;;-2.59;68.48;102313.90;1654275;86;25940;-64
2022/01/11 06:59:18;;;;;;;7.53;3.83;;;;;;;-2.62;68.51;102313.49;1653410;86;25816;-63
2022/01/11 07:01:47;;;;;;;6.60;3.50;;;;;;;-2.64;68.79;102318.35;1653397;86;25526;-64
2022/01/11 07:04:22;;;;;;;7.67;5.03;;;;;;;-2.65;68.68;102319.23;1652214;86;27391;-64
2022/01/11 07:06:51;;;;;;;8.13;4.35;;;;;;;-2.68;69.05;102326.27;1653372;86;25818;-63
2022/01/11 07:09:20;;;;;;;6.47;3.83;;;;;;;-2.68;69.17;102324.09;1653312;86;25816;-63
2022/01/11 07:11:52;;;;;;;6.30;3.83;;;;;;;-2.65;69.28;102333.72;1653652;86;26290;-63
2022/01/11 07:14:19;;;;;;;10.80;4.08;;;;;;;-2.64;69.37;102338.11;1653639;86;25830;-63
2022/01/11 07:16:48;;;;;;;7.55;4.33;;;;;;;-2.63;69.34;102339.41;1653729;86;28377;-64
2022/01/11 07:19:19;;;;;;;8.28;5.17;;;;;;;-2.60;69.28;102339.39;1653495;86;26734;-62
2022/01/11 07:21:48;;;;;;;7.28;4.45;;;;;;;-2.58;68.39;102346.84;1586581;90;25663;-63
2022/01/11 07:24:18;;;;;;;7.25;4.42;;;;;;;-2.57;68.67;102346.39;1615798;88;25802;-62
2022/01/11 07:26:45;;;;;;;7.20;4.72;;;;;;;-2.59;68.50;102345.09;1613598;88;25832;-63
2022/01/11 07:29:13;;;;;;;5.55;3.50;;;;;;;-2.60;68.10;102350.39;1613433;88;27503;-63
2022/01/11 07:31:41;;;;;;;7.33;2.65;;;;;;;-2.62;67.91;102357.42;1615859;88;25814;-63
2022/01/11 07:34:12;;;;;;;9.05;4.90;;;;;;;-2.66;68.15;102365.80;1602494;89;25851;-63
2022/01/11 07:36:42;;;;;;;7.12;4.12;;;;;;;-2.71;68.24;102363.20;1603109;89;26487;-63
2022/01/11 07:39:12;;;;;;;5.92;3.90;;;;;;;-2.72;68.48;102368.45;1602592;89;25770;-64
2022/01/11 07:41:42;;;;;;;8.73;4.67;;;;;;;-2.72;68.70;102376.36;1604404;88;27486;-64
2022/01/11 07:44:11;;;;;;;6.90;4.50;;;;;;;-2.71;68.57;102375.48;1627873;88;25767;-63
2022/01/11 07:46:43;;;;;;;7.03;4.05;;;;;;;-2.73;69.32;102379.88;1628082;88;25866;-62
2022/01/11 07:49:15;;;;;;;10.08;6.03;;;;;;;-2.76;69.37;102379.92;1627896;88;25736;-64
2022/01/11 07:51:42;;;;;;;9.85;5.47;;;;;;;-2.80;69.78;102378.17;1635419;87;25883;-64
2022/01/11 07:54:10;;;;;;;18.07;4.92;;;;;;;-2.84;70.09;102383.91;1616934;87;27500;-63
2022/01/11 07:56:39;;;;;;;15.32;6.33;;;;;;;-2.86;70.60;102381.72;1622997;88;26565;-63
2022/01/11 07:59:09;;;;;;;12.37;6.70;;;;;;;-2.85;70.71;102381.73;1613880;88;25781;-64
2022/01/11 08:01:38;;;;;;;11.97;6.30;;;;;;;-2.79;70.90;102387.83;1661911;85;25825;-63
2022/01/11 08:04:06;;;;;;;9.40;5.42;;;;;;;-2.80;70.68;102388.28;1667674;86;25788;-63
2022/01/11 08:06:35;;;;;;;11.00;6.20;;;;;;;-2.77;70.93;102384.75;1667553;86;28257;-64
2022/01/11 08:09:07;;;;;;;12.82;6.40;;;;;;;-2.75;70.64;102389.58;1667571;85;25580;-65
2022/01/11 08:11:36;;;;;;;12.07;6.58;;;;;;;-2.79;70.54;102396.63;1668300;86;25780;-64
2022/01/11 08:14:04;;;;;;;11.90;5.90;;;;;;;-2.78;70.71;102398.80;1660763;85;26501;-64
2022/01/11 08:16:32;;;;;;;9.88;6.17;;;;;;;-2.79;70.76;102393.09;1609862;88;27246;-63
2022/01/11 08:18:59;;;;;;;11.95;6.45;;;;;;;-2.79;70.99;102406.27;1609860;88;28204;-64
2022/01/11 08:21:27;;;;;;;11.25;6.20;;;;;;;-2.78;71.16;102414.61;1641988;86;25783;-63
2022/01/11 08:23:54;;;;;;;10.32;5.95;;;;;;;-2.78;71.19;102406.70;1650229;86;25781;-64
2022/01/11 08:26:21;;;;;;;9.28;5.10;;;;;;;-2.78;70.72;102404.93;1626570;87;25824;-64
2022/01/11 08:28:48;;;;;;;11.90;6.05;;;;;;;-2.79;69.86;102406.27;1631147;88;25760;-63
2022/01/11 08:31:16;;;;;;;15.50;4.53;;;;;;;-2.80;69.58;102411.09;1630790;88;27499;-62
2022/01/11 08:33:46;;;;;;;9.35;5.05;;;;;;;-2.78;69.01;102405.39;1617088;88;25835;-63
2022/01/11 08:36:13;;;;;;;5.90;3.70;;;;;;;-2.78;69.24;102412.83;1644142;87;25721;-62
2022/01/11 08:38:41;;;;;;;5.78;3.83;;;;;;;-2.77;68.35;102413.27;1644281;86;25806;-63
2022/01/11 08:41:10;;;;;;;8.85;4.85;;;;;;;-2.82;68.51;102407.17;1644574;87;25851;-63
2022/01/11 08:43:39;;;;;;;6.15;4.40;;;;;;;-2.84;68.92;102415.09;1652150;86;28364;-63
2022/01/11 08:46:06;;;;;;;8.75;4.97;;;;;;;-2.79;68.60;102419.44;1662237;86;25932;-63
2022/01/11 08:48:34;;;;;;;7.75;4.30;;;;;;;-2.78;68.18;102414.16;1617873;86;25786;-64
2022/01/11 08:51:05;;;;;;;7.40;4.78;;;;;;;-2.78;68.38;102415.47;1610622;87;25857;-63
2022/01/11 08:53:33;;;;;;;9.38;5.45;;;;;;;-2.74;68.62;102416.35;1630961;86;25791;-63
2022/01/11 08:56:08;;;;;;;12.40;4.37;;;;;;;-2.73;68.51;102410.17;1633642;87;27617;-63
2022/01/11 08:58:37;;;;;;;11.20;5.53;;;;;;;-2.70;69.04;102416.75;1608152;87;27268;-64
2022/01/11 09:01:06;;;;;;;12.00;5.97;;;;;;;-2.67;69.03;102408.38;1629292;88;25787;-64
2022/01/11 09:03:34;;;;;;;10.55;5.42;;;;;;;-2.70;68.67;102412.37;1633223;87;25807;-64
2022/01/11 09:06:07;;;;;;;15.10;6.05;;;;;;;-2.70;69.17;102410.16;1629296;88;26028;-63
2022/01/11 09:08:34;;;;;;;11.53;5.65;;;;;;;-2.67;68.86;102407.52;1634714;87;27508;-64
2022/01/11 09:11:04;;;;;;;12.65;6.03;;;;;;;-2.70;69.25;102391.30;1603588;88;26116;-64
2022/01/11 09:13:33;;;;;;;9.48;5.85;;;;;;;-2.69;69.18;102407.50;1635576;86;25812;-64
2022/01/11 09:16:01;;;;;;;14.00;5.37;;;;;;;-2.64;69.04;102405.30;1616786;88;26446;-64
2022/01/11 09:18:28;;;;;;;11.00;5.53;;;;;;;-2.61;68.31;102396.92;1616675;88;25781;-64
2022/01/11 09:21:00;;;;;;;12.98;6.12;;;;;;;-2.61;68.71;102387.70;1616514;88;27907;-64
2022/01/11 09:23:25;;;;;;;8.73;4.92;;;;;;;-2.53;67.80;102380.61;1628194;86;25835;-64
2022/01/11 09:25:52;;;;;;;6.60;4.03;;;;;;;-2.55;67.30;102385.01;1655536;86;25730;-64
2022/01/11 09:28:21;;;;;;;7.28;4.08;;;;;;;-2.59;67.18;102377.14;1656189;86;25760;-64
2022/01/11 09:30:54;;;;;;;11.95;4.37;;;;;;;-2.61;66.58;102382.43;1655688;86;25800;-64
2022/01/11 09:33:22;;;;;;;9.95;5.75;;;;;;;-2.70;67.16;102387.77;1655190;86;27543;-64
2022/01/11 09:35:49;;;;;;;9.28;5.45;;;;;;;-2.72;67.48;102386.47;1654163;86;25854;-63
2022/01/11 09:38:18;;;;;;;8.98;5.15;;;;;;;-2.69;67.68;102375.89;1655919;85;25666;-64
2022/01/11 09:40:47;;;;;;;9.28;5.05;;;;;;;-2.64;67.43;102381.12;1655465;85;26532;-64
2022/01/11 09:43:14;;;;;;;11.88;5.42;;;;;;;-2.61;67.24;102374.52;1649716;86;25847;-64
2022/01/11 09:45:45;;;;;;;10.03;5.78;;;;;;;-2.63;67.29;102371.02;1644007;86;27504;-63
2022/01/11 09:48:16;;;;;;;12.15;5.78;;;;;;;-2.59;67.41;102379.77;1636719;87;26561;-63
2022/01/11 09:50:47;;;;;;;10.08;5.40;;;;;;;-2.53;67.27;102376.66;1645503;86;25767;-63
2022/01/11 09:53:15;;;;;;;14.90;4.83;;;;;;;-2.52;67.23;102372.28;1657213;86;26499;-64
2022/01/11 09:55:45;;;;;;;11.08;6.33;;;;;;;-2.49;67.12;102368.28;1657748;86;25799;-64
2022/01/11 09:58:14;;;;;;;10.05;5.47;;;;;;;-2.49;67.42;102364.78;1657446;86;27557;-63
2022/01/11 10:00:43;;;;;;;16.15;5.95;;;;;;;-2.44;67.61;102364.28;1624125;87;25962;-63
2022/01/11 10:03:14;;;;;;;7.58;5.40;;;;;;;-2.36;67.45;102365.98;1634603;87;25854;-63
2022/01/11 10:05:43;;;;;;;7.78;4.65;;;;;;;-2.28;67.48;102361.94;1637324;86;25755;-63
2022/01/11 10:08:22;;;;;;;7.45;4.95;;;;;;;-2.13;67.14;102358.75;1644499;86;25792;-64
2022/01/11 10:10:52;;;;;;;18.85;6.47;;;;;;;-2.08;66.73;102354.28;1657670;86;28231;-63
2022/01/11 10:13:33;;;;;;;12.80;5.50;;;;;;;-2.05;66.37;102362.17;1657510;86;25735;-64
2022/01/11 10:16:24;;;;;;;10.15;5.62;;;;;;;-2.01;65.81;102352.00;1655835;86;25834;-63
2022/01/11 10:18:55;;;;;;;8.63;5.00;;;;;;;-1.97;65.39;102352.42;1655938;86;25950;-64
2022/01/11 10:21:42;;;;;;;8.43;4.78;;;;;;;-1.95;65.10;102348.01;1662567;85;25882;-64
2022/01/11 10:24:32;;;;;;;9.20;4.72;;;;;;;-1.98;64.09;102355.94;1655256;85;27607;-63
2022/01/11 10:27:08;;;;;;;7.55;4.47;;;;;;;-1.98;64.45;102360.36;1654353;86;25753;-64
2022/01/11 10:29:40;;;;;;;6.35;4.28;;;;;;;-1.97;64.58;102359.02;1655503;86;25882;-62
2022/01/11 10:32:33;;;;;;;7.22;4.42;;;;;;;-1.92;64.29;102367.73;1652241;85;25778;-62
2022/01/11 10:35:13;;;;;;;6.05;3.85;;;;;;;-1.91;64.16;102367.31;1611229;88;26296;-63
2022/01/11 10:37:47;;;;;;;14.73;4.72;;;;;;;-1.85;63.13;102365.05;1641332;86;27494;-63
2022/01/11 10:40:27;;;;;;;9.65;4.00;;;;;;;-1.86;63.10;102368.58;1634914;87;25878;-62
2022/01/11 10:43:00;;;;;;;10.28;3.95;;;;;;;-1.87;62.81;102367.69;1643480;86;36249;-63
2022/01/11 10:45:36;;;;;;;6.45;3.67;;;;;;;-1.89;62.29;102361.13;1634606;87;25788;-62
2022/01/11 10:48:12;;;;;;;5.15;3.58;;;;;;;-1.89;62.18;102358.94;1621574;87;25860;-63
2022/01/11 10:50:44;;;;;;;8.93;3.52;;;;;;;-1.90;61.59;102363.78;1610820;89;27494;-63
2022/01/11 10:53:28;;;;;;;5.03;3.67;;;;;;;-1.94;61.84;102358.99;1634874;87;25867;-63
2022/01/11 10:55:59;;;;;;;11.53;4.95;;;;;;;-2.01;62.41;102366.52;1636202;87;25923;-63
2022/01/11 10:58:36;;;;;;;5.12;3.40;;;;;;;-2.04;62.22;102363.92;1637068;86;25806;-63
2022/01/11 11:01:06;;;;;;;9.20;3.12;;;;;;;-2.01;62.22;102373.56;1639428;87;25770;-62
2022/01/11 11:03:35;;;;;;;7.28;5.22;;;;;;;-1.99;61.85;102372.66;1613315;87;28355;-62
2022/01/11 11:06:07;;;;;;;6.45;3.00;;;;;;;-2.06;62.54;102382.38;1646967;85;25779;-63
2022/01/11 11:08:40;;;;;;;7.85;3.42;;;;;;;-2.02;62.82;102377.09;1656746;86;25834;-62
2022/01/11 11:11:23;;;;;;;8.43;4.33;;;;;;;-2.05;61.91;102371.41;1641875;86;26335;-62
2022/01/11 11:13:57;;;;;;;6.33;4.37;;;;;;;-2.06;61.77;102372.30;1597504;89;27418;-63
2022/01/11 11:16:29;;;;;;;4.15;2.70;;;;;;;-2.07;62.02;102371.44;1611682;88;27462;-63
2022/01/11 11:19:00;;;;;;;6.15;3.87;;;;;;;-2.09;61.04;102370.56;1611777;89;26050;-61
2022/01/11 11:21:38;;;;;;;5.53;3.27;;;;;;;-2.12;61.48;102381.59;1611389;88;25856;-62
2022/01/11 11:24:13;;;;;;;5.58;2.77;;;;;;;-2.15;61.77;102387.75;1620646;87;25736;-63
2022/01/11 11:26:46;;;;;;;3.25;2.72;;;;;;;-2.15;61.09;102382.92;1613122;87;25847;-63
2022/01/11 11:29:16;;;;;;;8.18;3.27;;;;;;;-2.17;61.32;102375.05;1614702;87;27577;-62
2022/01/11 11:31:44;;;;;;;5.62;2.87;;;;;;;-2.22;60.99;102375.52;1635055;86;25483;-63
2022/01/11 11:34:12;;;;;;;6.35;3.17;;;;;;;-2.25;61.00;102392.70;1638785;87;25775;-64
2022/01/11 11:36:42;;;;;;;4.78;3.22;;;;;;;-2.26;60.24;102379.08;1616283;87;25908;-63